sensor_id;sensor_type;location;lat;lon;timestamp;temperature;humidity
14411;DHT22;7290;50.854;4.354;2023-08-06T00:01:22;16.80;99.90
14411;DHT22;7290;50.854;4.354;2023-08-06T00:03:48;16.70;99.90
14411;DHT22;7290;50.854;4.354;2023-08-06T00:06:14;16.60;99.90
14411;DHT22;7290;50.854;4.354;2023-08-06T00:08:41;16.70;99.90
14411;DHT22;7290;50.854;4.354;2023-08-06T00:11:07;16.70;99.90
14411;DHT22;7290;50.854;4.354;2023-08-06T00:13:33;16.80;99.90
14411;DHT22;7290;50.854;4.354;2023-08-06T00:16:09;16.90;99.90
14411;DHT22;7290;50.854;4.354;2023-08-06T00:18:35;16.80;99.90
14411;DHT22;7290;50.854;4.354;2023-08-06T00:21:01;16.60;99.90
14411;DHT22;7290;50.854;4.354;2023-08-06T00:23:27;16.70;99.90
14411;DHT22;7290;50.854;4.354;2023-08-06T00:25:53;16.80;99.90
14411;DHT22;7290;50.854;4.354;2023-08-06T00:28:19;16.90;99.90
14411;DHT22;7290;50.854;4.354;2023-08-06T00:30:45;16.90;99.90
14411;DHT22;7290;50.854;4.354;2023-08-06T00:33:11;16.80;99.90
14411;DHT22;7290;50.854;4.354;2023-08-06T00:35:38;16.60;99.90
14411;DHT22;7290;50.854;4.354;2023-08-06T00:38:04;16.50;99.90
14411;DHT22;7290;50.854;4.354;2023-08-06T00:40:30;16.40;99.90
14411;DHT22;7290;50.854;4.354;2023-08-06T00:42:56;16.50;99.90
14411;DHT22;7290;50.854;4.354;2023-08-06T00:45:23;16.60;99.90
14411;DHT22;7290;50.854;4.354;2023-08-06T00:47:49;16.70;99.90
14411;DHT22;7290;50.854;4.354;2023-08-06T00:50:15;16.70;99.90
14411;DHT22;7290;50.854;4.354;2023-08-06T00:52:41;16.60;99.90
14411;DHT22;7290;50.854;4.354;2023-08-06T00:55:08;16.60;99.90
14411;DHT22;7290;50.854;4.354;2023-08-06T00:57:35;16.50;99.90
14411;DHT22;7290;50.854;4.354;2023-08-06T01:00:02;16.50;99.90
14411;DHT22;7290;50.854;4.354;2023-08-06T01:02:29;16.50;99.90
14411;DHT22;7290;50.854;4.354;2023-08-06T01:04:55;16.50;99.90
14411;DHT22;7290;50.854;4.354;2023-08-06T01:07:33;16.50;99.90
14411;DHT22;7290;50.854;4.354;2023-08-06T01:10:15;16.50;99.90
14411;DHT22;7290;50.854;4.354;2023-08-06T01:12:51;16.40;99.90
14411;DHT22;7290;50.854;4.354;2023-08-06T01:15:29;16.50;99.90
14411;DHT22;7290;50.854;4.354;2023-08-06T01:17:56;16.40;99.90
14411;DHT22;7290;50.854;4.354;2023-08-06T01:20:28;16.40;99.90
14411;DHT22;7290;50.854;4.354;2023-08-06T01:22:54;16.50;99.90
14411;DHT22;7290;50.854;4.354;2023-08-06T01:25:20;16.50;99.90
14411;DHT22;7290;50.854;4.354;2023-08-06T01:27:49;16.50;99.90
14411;DHT22;7290;50.854;4.354;2023-08-06T01:30:17;16.50;99.90
14411;DHT22;7290;50.854;4.354;2023-08-06T01:32:46;16.50;99.90
14411;DHT22;7290;50.854;4.354;2023-08-06T01:35:15;16.50;99.90
14411;DHT22;7290;50.854;4.354;2023-08-06T01:37:42;16.60;99.90
14411;DHT22;7290;50.854;4.354;2023-08-06T01:40:10;16.60;99.90
14411;DHT22;7290;50.854;4.354;2023-08-06T01:42:37;16.60;99.90
14411;DHT22;7290;50.854;4.354;2023-08-06T01:45:03;16.50;99.90
14411;DHT22;7290;50.854;4.354;2023-08-06T01:47:29;16.50;99.90
14411;DHT22;7290;50.854;4.354;2023-08-06T01:49:55;16.50;99.90
14411;DHT22;7290;50.854;4.354;2023-08-06T01:52:21;16.60;99.90
14411;DHT22;7290;50.854;4.354;2023-08-06T01:54:48;16.50;99.90
14411;DHT22;7290;50.854;4.354;2023-08-06T01:57:15;16.60;99.90
14411;DHT22;7290;50.854;4.354;2023-08-06T01:59:41;16.60;99.90
14411;DHT22;7290;50.854;4.354;2023-08-06T02:02:07;16.70;99.90
14411;DHT22;7290;50.854;4.354;2023-08-06T02:04:33;16.50;99.90
14411;DHT22;7290;50.854;4.354;2023-08-06T02:06:59;16.50;99.90
14411;DHT22;7290;50.854;4.354;2023-08-06T02:09:25;16.40;99.90
14411;DHT22;7290;50.854;4.354;2023-08-06T02:11:52;16.40;99.90
14411;DHT22;7290;50.854;4.354;2023-08-06T02:14:18;16.50;99.90
14411;DHT22;7290;50.854;4.354;2023-08-06T02:16:44;16.50;99.90
14411;DHT22;7290;50.854;4.354;2023-08-06T02:19:10;16.40;99.90
14411;DHT22;7290;50.854;4.354;2023-08-06T02:21:36;16.30;99.90
14411;DHT22;7290;50.854;4.354;2023-08-06T02:24:03;16.30;99.90
14411;DHT22;7290;50.854;4.354;2023-08-06T02:26:29;16.30;99.90
14411;DHT22;7290;50.854;4.354;2023-08-06T02:28:56;16.40;99.90
14411;DHT22;7290;50.854;4.354;2023-08-06T02:31:22;16.50;99.90
14411;DHT22;7290;50.854;4.354;2023-08-06T02:33:48;16.40;99.90
14411;DHT22;7290;50.854;4.354;2023-08-06T02:36:14;16.40;99.90
14411;DHT22;7290;50.854;4.354;2023-08-06T02:38:40;16.30;99.90
14411;DHT22;7290;50.854;4.354;2023-08-06T02:41:06;16.30;99.90
14411;DHT22;7290;50.854;4.354;2023-08-06T02:43:32;16.30;99.90
14411;DHT22;7290;50.854;4.354;2023-08-06T02:45:59;16.40;99.90
14411;DHT22;7290;50.854;4.354;2023-08-06T02:48:26;16.40;99.90
14411;DHT22;7290;50.854;4.354;2023-08-06T02:50:52;16.40;99.90
14411;DHT22;7290;50.854;4.354;2023-08-06T02:53:18;16.40;99.90
14411;DHT22;7290;50.854;4.354;2023-08-06T02:55:46;16.40;99.90
14411;DHT22;7290;50.854;4.354;2023-08-06T02:58:13;16.50;99.90
14411;DHT22;7290;50.854;4.354;2023-08-06T03:00:39;16.50;99.90
14411;DHT22;7290;50.854;4.354;2023-08-06T03:03:06;16.50;99.90
14411;DHT22;7290;50.854;4.354;2023-08-06T03:05:32;16.50;99.90
14411;DHT22;7290;50.854;4.354;2023-08-06T03:07:58;16.60;99.90
14411;DHT22;7290;50.854;4.354;2023-08-06T03:10:24;16.50;99.90
14411;DHT22;7290;50.854;4.354;2023-08-06T03:12:50;16.30;99.90
14411;DHT22;7290;50.854;4.354;2023-08-06T03:15:16;16.30;99.90
14411;DHT22;7290;50.854;4.354;2023-08-06T03:17:42;16.30;99.90
14411;DHT22;7290;50.854;4.354;2023-08-06T03:20:10;16.30;99.90
14411;DHT22;7290;50.854;4.354;2023-08-06T03:22:36;16.20;99.90
14411;DHT22;7290;50.854;4.354;2023-08-06T03:25:03;16.30;99.90
14411;DHT22;7290;50.854;4.354;2023-08-06T03:27:29;16.30;99.90
14411;DHT22;7290;50.854;4.354;2023-08-06T03:29:56;16.30;99.90
14411;DHT22;7290;50.854;4.354;2023-08-06T03:32:22;16.30;99.90
14411;DHT22;7290;50.854;4.354;2023-08-06T03:34:48;16.30;99.90
14411;DHT22;7290;50.854;4.354;2023-08-06T03:37:14;16.30;99.90
14411;DHT22;7290;50.854;4.354;2023-08-06T03:39:40;16.30;99.90
14411;DHT22;7290;50.854;4.354;2023-08-06T03:42:06;16.30;99.90
14411;DHT22;7290;50.854;4.354;2023-08-06T03:44:32;16.30;99.90
14411;DHT22;7290;50.854;4.354;2023-08-06T03:46:59;16.40;99.90
14411;DHT22;7290;50.854;4.354;2023-08-06T03:49:25;16.40;99.90
14411;DHT22;7290;50.854;4.354;2023-08-06T03:51:51;16.40;99.90
14411;DHT22;7290;50.854;4.354;2023-08-06T03:54:17;16.20;99.90
14411;DHT22;7290;50.854;4.354;2023-08-06T03:56:43;16.10;99.90
14411;DHT22;7290;50.854;4.354;2023-08-06T03:59:09;16.00;99.90
14411;DHT22;7290;50.854;4.354;2023-08-06T04:01:35;15.90;99.90
14411;DHT22;7290;50.854;4.354;2023-08-06T04:04:02;15.70;99.90
14411;DHT22;7290;50.854;4.354;2023-08-06T04:06:28;15.70;99.90
14411;DHT22;7290;50.854;4.354;2023-08-06T04:08:54;15.70;99.90
14411;DHT22;7290;50.854;4.354;2023-08-06T04:11:20;15.70;99.90
14411;DHT22;7290;50.854;4.354;2023-08-06T04:13:46;15.60;99.90
14411;DHT22;7290;50.854;4.354;2023-08-06T04:16:12;15.50;99.90
14411;DHT22;7290;50.854;4.354;2023-08-06T04:18:40;15.50;99.90
14411;DHT22;7290;50.854;4.354;2023-08-06T04:21:06;15.50;99.90
14411;DHT22;7290;50.854;4.354;2023-08-06T04:23:33;15.50;99.90
14411;DHT22;7290;50.854;4.354;2023-08-06T04:25:59;15.50;99.90
14411;DHT22;7290;50.854;4.354;2023-08-06T04:28:26;15.40;99.90
14411;DHT22;7290;50.854;4.354;2023-08-06T04:30:52;15.40;99.90
14411;DHT22;7290;50.854;4.354;2023-08-06T04:33:19;15.40;99.90
14411;DHT22;7290;50.854;4.354;2023-08-06T04:35:45;15.50;99.90
14411;DHT22;7290;50.854;4.354;2023-08-06T04:38:11;15.50;99.90
14411;DHT22;7290;50.854;4.354;2023-08-06T04:40:37;15.60;99.90
14411;DHT22;7290;50.854;4.354;2023-08-06T04:43:03;15.50;99.90
14411;DHT22;7290;50.854;4.354;2023-08-06T04:45:30;15.40;99.90
14411;DHT22;7290;50.854;4.354;2023-08-06T04:47:56;15.30;99.90
14411;DHT22;7290;50.854;4.354;2023-08-06T04:50:22;15.30;99.90
14411;DHT22;7290;50.854;4.354;2023-08-06T04:52:49;15.30;99.90
14411;DHT22;7290;50.854;4.354;2023-08-06T04:55:15;15.20;99.90
14411;DHT22;7290;50.854;4.354;2023-08-06T04:57:41;15.20;99.90
14411;DHT22;7290;50.854;4.354;2023-08-06T05:00:08;15.10;99.90
14411;DHT22;7290;50.854;4.354;2023-08-06T05:02:34;15.20;99.90
14411;DHT22;7290;50.854;4.354;2023-08-06T05:05:04;15.10;99.90
14411;DHT22;7290;50.854;4.354;2023-08-06T05:07:30;15.30;99.90
14411;DHT22;7290;50.854;4.354;2023-08-06T05:09:56;15.30;99.90
14411;DHT22;7290;50.854;4.354;2023-08-06T05:12:22;15.20;99.90
14411;DHT22;7290;50.854;4.354;2023-08-06T05:14:48;15.30;99.90
14411;DHT22;7290;50.854;4.354;2023-08-06T05:17:14;15.30;99.90
14411;DHT22;7290;50.854;4.354;2023-08-06T05:19:41;15.30;99.90
14411;DHT22;7290;50.854;4.354;2023-08-06T05:22:07;15.30;99.90
14411;DHT22;7290;50.854;4.354;2023-08-06T05:24:33;15.30;99.90
14411;DHT22;7290;50.854;4.354;2023-08-06T05:26:59;15.40;99.90
14411;DHT22;7290;50.854;4.354;2023-08-06T05:29:25;15.40;99.90
14411;DHT22;7290;50.854;4.354;2023-08-06T05:31:52;15.40;99.90
14411;DHT22;7290;50.854;4.354;2023-08-06T05:34:18;15.40;99.90
14411;DHT22;7290;50.854;4.354;2023-08-06T05:36:45;15.40;99.90
14411;DHT22;7290;50.854;4.354;2023-08-06T05:39:11;15.30;99.90
14411;DHT22;7290;50.854;4.354;2023-08-06T05:41:37;15.40;99.90
14411;DHT22;7290;50.854;4.354;2023-08-06T05:44:03;15.40;99.90
14411;DHT22;7290;50.854;4.354;2023-08-06T05:46:29;15.40;99.90
14411;DHT22;7290;50.854;4.354;2023-08-06T05:48:55;15.50;99.90
14411;DHT22;7290;50.854;4.354;2023-08-06T05:51:22;15.50;99.90
14411;DHT22;7290;50.854;4.354;2023-08-06T05:53:49;15.50;99.90
14411;DHT22;7290;50.854;4.354;2023-08-06T05:56:16;15.40;99.90
14411;DHT22;7290;50.854;4.354;2023-08-06T05:58:42;15.40;99.90
14411;DHT22;7290;50.854;4.354;2023-08-06T06:01:08;15.40;99.90
14411;DHT22;7290;50.854;4.354;2023-08-06T06:03:34;15.40;99.90
14411;DHT22;7290;50.854;4.354;2023-08-06T06:06:01;15.60;99.90
14411;DHT22;7290;50.854;4.354;2023-08-06T06:08:27;15.70;99.90
14411;DHT22;7290;50.854;4.354;2023-08-06T06:10:54;15.70;99.90
14411;DHT22;7290;50.854;4.354;2023-08-06T06:13:20;15.70;99.90
14411;DHT22;7290;50.854;4.354;2023-08-06T06:15:46;15.80;99.90
14411;DHT22;7290;50.854;4.354;2023-08-06T06:18:12;15.90;99.90
14411;DHT22;7290;50.854;4.354;2023-08-06T06:20:38;15.90;99.90
14411;DHT22;7290;50.854;4.354;2023-08-06T06:23:05;15.90;99.90
14411;DHT22;7290;50.854;4.354;2023-08-06T06:25:31;16.10;99.90
14411;DHT22;7290;50.854;4.354;2023-08-06T06:27:57;16.30;99.90
14411;DHT22;7290;50.854;4.354;2023-08-06T06:30:24;16.40;99.90
14411;DHT22;7290;50.854;4.354;2023-08-06T06:32:50;16.60;99.90
14411;DHT22;7290;50.854;4.354;2023-08-06T06:35:16;16.60;99.90
14411;DHT22;7290;50.854;4.354;2023-08-06T06:37:42;16.40;99.90
14411;DHT22;7290;50.854;4.354;2023-08-06T06:40:09;16.20;99.90
14411;DHT22;7290;50.854;4.354;2023-08-06T06:42:35;16.20;99.90
14411;DHT22;7290;50.854;4.354;2023-08-06T06:45:02;16.20;99.90
14411;DHT22;7290;50.854;4.354;2023-08-06T06:47:28;16.10;99.90
14411;DHT22;7290;50.854;4.354;2023-08-06T06:49:54;16.10;99.90
14411;DHT22;7290;50.854;4.354;2023-08-06T06:52:20;16.20;99.90
14411;DHT22;7290;50.854;4.354;2023-08-06T06:54:46;16.20;99.90
14411;DHT22;7290;50.854;4.354;2023-08-06T06:57:12;16.10;99.90
14411;DHT22;7290;50.854;4.354;2023-08-06T06:59:38;15.90;99.90
14411;DHT22;7290;50.854;4.354;2023-08-06T07:02:05;15.90;99.90
14411;DHT22;7290;50.854;4.354;2023-08-06T07:04:32;15.70;99.90
14411;DHT22;7290;50.854;4.354;2023-08-06T07:06:58;15.50;99.90
14411;DHT22;7290;50.854;4.354;2023-08-06T07:09:24;15.60;99.90
14411;DHT22;7290;50.854;4.354;2023-08-06T07:11:50;15.60;99.90
14411;DHT22;7290;50.854;4.354;2023-08-06T07:14:17;15.80;99.90
14411;DHT22;7290;50.854;4.354;2023-08-06T07:16:43;15.90;99.90
14411;DHT22;7290;50.854;4.354;2023-08-06T07:19:09;16.00;99.90
14411;DHT22;7290;50.854;4.354;2023-08-06T07:21:35;15.90;99.90
14411;DHT22;7290;50.854;4.354;2023-08-06T07:24:02;15.80;99.90
14411;DHT22;7290;50.854;4.354;2023-08-06T07:26:28;15.90;99.90
14411;DHT22;7290;50.854;4.354;2023-08-06T07:28:54;15.80;99.90
14411;DHT22;7290;50.854;4.354;2023-08-06T07:31:20;15.70;99.90
14411;DHT22;7290;50.854;4.354;2023-08-06T07:33:46;15.70;99.90
14411;DHT22;7290;50.854;4.354;2023-08-06T07:36:14;15.90;99.90
14411;DHT22;7290;50.854;4.354;2023-08-06T07:38:40;16.20;99.90
14411;DHT22;7290;50.854;4.354;2023-08-06T07:41:06;16.40;99.90
14411;DHT22;7290;50.854;4.354;2023-08-06T07:43:32;16.60;99.90
14411;DHT22;7290;50.854;4.354;2023-08-06T07:45:59;16.80;99.90
14411;DHT22;7290;50.854;4.354;2023-08-06T07:48:25;16.80;99.90
14411;DHT22;7290;50.854;4.354;2023-08-06T07:50:52;16.90;99.90
14411;DHT22;7290;50.854;4.354;2023-08-06T07:53:19;16.80;99.90
14411;DHT22;7290;50.854;4.354;2023-08-06T07:55:49;16.80;99.90
14411;DHT22;7290;50.854;4.354;2023-08-06T07:58:15;16.90;99.90
14411;DHT22;7290;50.854;4.354;2023-08-06T08:00:41;17.10;99.90
14411;DHT22;7290;50.854;4.354;2023-08-06T08:03:08;17.10;99.90
14411;DHT22;7290;50.854;4.354;2023-08-06T08:05:34;17.20;99.90
14411;DHT22;7290;50.854;4.354;2023-08-06T08:08:00;17.50;99.90
14411;DHT22;7290;50.854;4.354;2023-08-06T08:10:26;17.90;99.90
14411;DHT22;7290;50.854;4.354;2023-08-06T08:12:53;18.20;99.90
14411;DHT22;7290;50.854;4.354;2023-08-06T08:15:19;18.00;99.90
14411;DHT22;7290;50.854;4.354;2023-08-06T08:17:45;17.60;99.90
14411;DHT22;7290;50.854;4.354;2023-08-06T08:20:13;17.20;99.90
14411;DHT22;7290;50.854;4.354;2023-08-06T08:22:39;17.10;99.90
14411;DHT22;7290;50.854;4.354;2023-08-06T08:25:06;16.80;99.90
14411;DHT22;7290;50.854;4.354;2023-08-06T08:27:32;16.80;99.90
14411;DHT22;7290;50.854;4.354;2023-08-06T08:29:59;16.60;99.90
14411;DHT22;7290;50.854;4.354;2023-08-06T08:32:25;16.60;99.90
14411;DHT22;7290;50.854;4.354;2023-08-06T08:34:51;16.40;99.90
14411;DHT22;7290;50.854;4.354;2023-08-06T08:37:17;16.20;99.90
14411;DHT22;7290;50.854;4.354;2023-08-06T08:39:43;16.20;99.90
14411;DHT22;7290;50.854;4.354;2023-08-06T08:42:10;16.30;99.90
14411;DHT22;7290;50.854;4.354;2023-08-06T08:44:37;16.50;99.90
14411;DHT22;7290;50.854;4.354;2023-08-06T08:47:05;16.70;99.90
14411;DHT22;7290;50.854;4.354;2023-08-06T08:49:32;16.70;99.90
14411;DHT22;7290;50.854;4.354;2023-08-06T08:51:59;17.00;99.90
14411;DHT22;7290;50.854;4.354;2023-08-06T08:54:29;16.90;99.90
14411;DHT22;7290;50.854;4.354;2023-08-06T08:56:56;17.00;99.90
14411;DHT22;7290;50.854;4.354;2023-08-06T08:59:23;16.80;99.90
14411;DHT22;7290;50.854;4.354;2023-08-06T09:01:51;16.50;99.90
14411;DHT22;7290;50.854;4.354;2023-08-06T09:04:17;16.40;99.90
14411;DHT22;7290;50.854;4.354;2023-08-06T09:06:46;16.40;99.90
14411;DHT22;7290;50.854;4.354;2023-08-06T09:09:15;16.50;99.90
14411;DHT22;7290;50.854;4.354;2023-08-06T09:11:43;16.50;99.90
14411;DHT22;7290;50.854;4.354;2023-08-06T09:14:11;16.60;99.90
14411;DHT22;7290;50.854;4.354;2023-08-06T09:16:37;16.50;99.90
14411;DHT22;7290;50.854;4.354;2023-08-06T09:19:08;16.60;99.90
14411;DHT22;7290;50.854;4.354;2023-08-06T09:21:37;16.50;99.90
14411;DHT22;7290;50.854;4.354;2023-08-06T09:24:07;16.70;99.90
14411;DHT22;7290;50.854;4.354;2023-08-06T09:26:34;16.60;99.90
14411;DHT22;7290;50.854;4.354;2023-08-06T09:29:00;16.60;99.90
14411;DHT22;7290;50.854;4.354;2023-08-06T09:31:32;16.30;99.90
14411;DHT22;7290;50.854;4.354;2023-08-06T09:33:59;15.90;99.90
14411;DHT22;7290;50.854;4.354;2023-08-06T09:36:27;15.90;99.90
14411;DHT22;7290;50.854;4.354;2023-08-06T09:38:53;16.00;99.90
14411;DHT22;7290;50.854;4.354;2023-08-06T09:41:26;15.90;99.90
14411;DHT22;7290;50.854;4.354;2023-08-06T09:43:54;16.00;99.90
14411;DHT22;7290;50.854;4.354;2023-08-06T09:46:20;16.00;99.90
14411;DHT22;7290;50.854;4.354;2023-08-06T09:48:47;15.90;99.90
14411;DHT22;7290;50.854;4.354;2023-08-06T09:51:14;15.60;99.90
14411;DHT22;7290;50.854;4.354;2023-08-06T09:53:42;15.60;99.90
14411;DHT22;7290;50.854;4.354;2023-08-06T09:56:09;15.80;99.90
14411;DHT22;7290;50.854;4.354;2023-08-06T09:58:37;16.00;99.90
14411;DHT22;7290;50.854;4.354;2023-08-06T10:01:04;16.00;99.90
14411;DHT22;7290;50.854;4.354;2023-08-06T10:03:32;16.20;99.90
14411;DHT22;7290;50.854;4.354;2023-08-06T10:06:00;16.20;99.90
14411;DHT22;7290;50.854;4.354;2023-08-06T10:08:27;16.20;99.90
14411;DHT22;7290;50.854;4.354;2023-08-06T10:10:54;16.30;99.90
14411;DHT22;7290;50.854;4.354;2023-08-06T10:13:23;16.20;99.90
14411;DHT22;7290;50.854;4.354;2023-08-06T10:15:50;16.30;99.90
14411;DHT22;7290;50.854;4.354;2023-08-06T10:18:18;16.50;99.90
14411;DHT22;7290;50.854;4.354;2023-08-06T10:20:47;16.60;99.90
14411;DHT22;7290;50.854;4.354;2023-08-06T10:23:13;16.50;99.90
14411;DHT22;7290;50.854;4.354;2023-08-06T10:25:41;16.30;99.90
14411;DHT22;7290;50.854;4.354;2023-08-06T10:28:08;16.20;99.90
14411;DHT22;7290;50.854;4.354;2023-08-06T10:30:41;16.00;99.90
14411;DHT22;7290;50.854;4.354;2023-08-06T10:33:07;16.00;99.90
14411;DHT22;7290;50.854;4.354;2023-08-06T10:35:37;15.90;99.90
14411;DHT22;7290;50.854;4.354;2023-08-06T10:38:05;15.90;99.90
14411;DHT22;7290;50.854;4.354;2023-08-06T10:40:31;15.90;99.90
14411;DHT22;7290;50.854;4.354;2023-08-06T10:42:59;15.80;99.90
14411;DHT22;7290;50.854;4.354;2023-08-06T10:45:26;15.70;99.90
14411;DHT22;7290;50.854;4.354;2023-08-06T10:47:54;15.80;99.90
14411;DHT22;7290;50.854;4.354;2023-08-06T10:50:22;15.90;99.90
14411;DHT22;7290;50.854;4.354;2023-08-06T10:52:48;15.80;99.90
14411;DHT22;7290;50.854;4.354;2023-08-06T10:55:22;16.00;99.90
14411;DHT22;7290;50.854;4.354;2023-08-06T10:57:49;16.30;99.90
14411;DHT22;7290;50.854;4.354;2023-08-06T11:00:16;16.50;99.90
14411;DHT22;7290;50.854;4.354;2023-08-06T11:02:43;16.50;99.90
14411;DHT22;7290;50.854;4.354;2023-08-06T11:05:10;16.50;99.90
14411;DHT22;7290;50.854;4.354;2023-08-06T11:07:37;16.40;99.90
14411;DHT22;7290;50.854;4.354;2023-08-06T11:10:04;16.50;99.90
14411;DHT22;7290;50.854;4.354;2023-08-06T11:12:31;16.60;99.90
14411;DHT22;7290;50.854;4.354;2023-08-06T11:14:57;16.50;99.90
14411;DHT22;7290;50.854;4.354;2023-08-06T11:17:23;16.50;99.90
14411;DHT22;7290;50.854;4.354;2023-08-06T11:19:50;16.70;99.90
14411;DHT22;7290;50.854;4.354;2023-08-06T11:22:16;16.70;99.90
14411;DHT22;7290;50.854;4.354;2023-08-06T11:24:43;16.80;99.90
14411;DHT22;7290;50.854;4.354;2023-08-06T11:27:12;16.90;99.90
14411;DHT22;7290;50.854;4.354;2023-08-06T11:29:40;16.80;99.90
14411;DHT22;7290;50.854;4.354;2023-08-06T11:32:06;16.70;99.90
14411;DHT22;7290;50.854;4.354;2023-08-06T11:34:32;16.50;99.90
14411;DHT22;7290;50.854;4.354;2023-08-06T11:36:59;16.30;99.90
14411;DHT22;7290;50.854;4.354;2023-08-06T11:39:25;16.30;99.90
14411;DHT22;7290;50.854;4.354;2023-08-06T11:41:52;16.40;99.90
14411;DHT22;7290;50.854;4.354;2023-08-06T11:44:19;16.30;99.90
14411;DHT22;7290;50.854;4.354;2023-08-06T11:46:52;16.10;99.90
14411;DHT22;7290;50.854;4.354;2023-08-06T11:49:18;15.90;99.90
14411;DHT22;7290;50.854;4.354;2023-08-06T11:51:47;15.90;99.90
14411;DHT22;7290;50.854;4.354;2023-08-06T11:54:14;15.90;99.90
14411;DHT22;7290;50.854;4.354;2023-08-06T11:56:40;16.00;99.90
14411;DHT22;7290;50.854;4.354;2023-08-06T11:59:06;16.00;99.90
14411;DHT22;7290;50.854;4.354;2023-08-06T12:01:34;16.20;99.90
14411;DHT22;7290;50.854;4.354;2023-08-06T12:04:00;16.00;99.90
14411;DHT22;7290;50.854;4.354;2023-08-06T12:06:27;15.80;99.90
14411;DHT22;7290;50.854;4.354;2023-08-06T12:08:53;16.00;99.90
14411;DHT22;7290;50.854;4.354;2023-08-06T12:11:21;16.20;99.90
14411;DHT22;7290;50.854;4.354;2023-08-06T12:13:50;16.30;99.90
14411;DHT22;7290;50.854;4.354;2023-08-06T12:16:17;16.40;99.90
14411;DHT22;7290;50.854;4.354;2023-08-06T12:18:44;16.60;99.90
14411;DHT22;7290;50.854;4.354;2023-08-06T12:21:10;16.90;99.90
14411;DHT22;7290;50.854;4.354;2023-08-06T12:23:36;17.00;99.90
14411;DHT22;7290;50.854;4.354;2023-08-06T12:26:02;17.30;99.90
14411;DHT22;7290;50.854;4.354;2023-08-06T12:28:29;17.10;99.90
14411;DHT22;7290;50.854;4.354;2023-08-06T12:30:55;17.20;99.90
14411;DHT22;7290;50.854;4.354;2023-08-06T12:33:21;17.10;99.90
14411;DHT22;7290;50.854;4.354;2023-08-06T12:35:47;17.10;99.90
14411;DHT22;7290;50.854;4.354;2023-08-06T12:38:13;16.90;99.90
14411;DHT22;7290;50.854;4.354;2023-08-06T12:40:39;17.00;99.90
14411;DHT22;7290;50.854;4.354;2023-08-06T12:43:05;16.60;99.90
14411;DHT22;7290;50.854;4.354;2023-08-06T12:45:32;16.60;99.90
14411;DHT22;7290;50.854;4.354;2023-08-06T12:47:58;16.60;99.90
14411;DHT22;7290;50.854;4.354;2023-08-06T12:50:24;16.80;99.90
14411;DHT22;7290;50.854;4.354;2023-08-06T12:52:51;17.00;99.90
14411;DHT22;7290;50.854;4.354;2023-08-06T12:55:17;17.10;99.90
14411;DHT22;7290;50.854;4.354;2023-08-06T12:57:43;17.00;99.90
14411;DHT22;7290;50.854;4.354;2023-08-06T13:00:09;17.00;99.90
14411;DHT22;7290;50.854;4.354;2023-08-06T13:02:36;17.10;99.90
14411;DHT22;7290;50.854;4.354;2023-08-06T13:05:02;16.70;99.90
14411;DHT22;7290;50.854;4.354;2023-08-06T13:07:30;16.70;99.90
14411;DHT22;7290;50.854;4.354;2023-08-06T13:09:57;16.70;99.90
14411;DHT22;7290;50.854;4.354;2023-08-06T13:12:23;16.80;99.90
14411;DHT22;7290;50.854;4.354;2023-08-06T13:14:49;16.70;99.90
14411;DHT22;7290;50.854;4.354;2023-08-06T13:17:15;16.70;99.90
14411;DHT22;7290;50.854;4.354;2023-08-06T13:19:42;16.40;99.90
14411;DHT22;7290;50.854;4.354;2023-08-06T13:22:08;16.50;99.90
14411;DHT22;7290;50.854;4.354;2023-08-06T13:24:35;16.30;99.90
14411;DHT22;7290;50.854;4.354;2023-08-06T13:27:01;16.40;99.90
14411;DHT22;7290;50.854;4.354;2023-08-06T13:29:28;16.40;99.90
14411;DHT22;7290;50.854;4.354;2023-08-06T13:31:54;16.40;99.90
14411;DHT22;7290;50.854;4.354;2023-08-06T13:34:20;16.60;99.90
14411;DHT22;7290;50.854;4.354;2023-08-06T13:36:47;16.60;99.90
14411;DHT22;7290;50.854;4.354;2023-08-06T13:39:13;16.50;99.90
14411;DHT22;7290;50.854;4.354;2023-08-06T13:41:42;16.40;99.90
14411;DHT22;7290;50.854;4.354;2023-08-06T13:44:08;16.20;99.90
14411;DHT22;7290;50.854;4.354;2023-08-06T13:46:34;16.20;99.90
14411;DHT22;7290;50.854;4.354;2023-08-06T13:49:00;16.20;99.90
14411;DHT22;7290;50.854;4.354;2023-08-06T13:51:26;16.10;99.90
14411;DHT22;7290;50.854;4.354;2023-08-06T13:53:53;16.10;99.90
14411;DHT22;7290;50.854;4.354;2023-08-06T13:56:19;16.20;99.90
14411;DHT22;7290;50.854;4.354;2023-08-06T13:58:45;16.20;99.90
14411;DHT22;7290;50.854;4.354;2023-08-06T14:01:12;16.30;99.90
14411;DHT22;7290;50.854;4.354;2023-08-06T14:03:39;16.30;99.90
14411;DHT22;7290;50.854;4.354;2023-08-06T14:06:05;16.30;99.90
14411;DHT22;7290;50.854;4.354;2023-08-06T14:08:31;16.20;99.90
14411;DHT22;7290;50.854;4.354;2023-08-06T14:10:57;16.20;99.90
14411;DHT22;7290;50.854;4.354;2023-08-06T14:13:24;16.40;99.90
14411;DHT22;7290;50.854;4.354;2023-08-06T14:15:50;16.40;99.90
14411;DHT22;7290;50.854;4.354;2023-08-06T14:18:16;16.60;99.90
14411;DHT22;7290;50.854;4.354;2023-08-06T14:20:42;16.70;99.90
14411;DHT22;7290;50.854;4.354;2023-08-06T14:23:09;16.60;99.90
14411;DHT22;7290;50.854;4.354;2023-08-06T14:25:35;16.50;99.90
14411;DHT22;7290;50.854;4.354;2023-08-06T14:28:02;16.30;99.90
14411;DHT22;7290;50.854;4.354;2023-08-06T14:30:28;16.10;99.90
14411;DHT22;7290;50.854;4.354;2023-08-06T14:32:54;16.00;99.90
14411;DHT22;7290;50.854;4.354;2023-08-06T14:35:20;16.10;99.90
14411;DHT22;7290;50.854;4.354;2023-08-06T14:37:46;16.20;99.90
14411;DHT22;7290;50.854;4.354;2023-08-06T14:40:12;16.10;99.90
14411;DHT22;7290;50.854;4.354;2023-08-06T14:42:38;16.20;99.90
14411;DHT22;7290;50.854;4.354;2023-08-06T14:45:06;16.10;99.90
14411;DHT22;7290;50.854;4.354;2023-08-06T14:47:34;16.20;99.90
14411;DHT22;7290;50.854;4.354;2023-08-06T14:50:00;16.30;99.90
14411;DHT22;7290;50.854;4.354;2023-08-06T14:52:27;16.50;99.90
14411;DHT22;7290;50.854;4.354;2023-08-06T14:54:53;16.50;99.90
14411;DHT22;7290;50.854;4.354;2023-08-06T14:57:21;16.70;99.90
14411;DHT22;7290;50.854;4.354;2023-08-06T14:59:53;16.60;99.90
14411;DHT22;7290;50.854;4.354;2023-08-06T15:02:20;16.60;99.90
14411;DHT22;7290;50.854;4.354;2023-08-06T15:04:46;16.80;99.90
14411;DHT22;7290;50.854;4.354;2023-08-06T15:07:15;16.90;99.90
14411;DHT22;7290;50.854;4.354;2023-08-06T15:09:41;17.00;99.90
14411;DHT22;7290;50.854;4.354;2023-08-06T15:12:08;17.20;99.90
14411;DHT22;7290;50.854;4.354;2023-08-06T15:14:34;17.20;99.90
14411;DHT22;7290;50.854;4.354;2023-08-06T15:17:00;17.10;99.90
14411;DHT22;7290;50.854;4.354;2023-08-06T15:19:27;17.10;99.90
14411;DHT22;7290;50.854;4.354;2023-08-06T15:21:53;17.20;99.90
14411;DHT22;7290;50.854;4.354;2023-08-06T15:24:20;17.00;99.90
14411;DHT22;7290;50.854;4.354;2023-08-06T15:26:46;16.80;99.90
14411;DHT22;7290;50.854;4.354;2023-08-06T15:29:13;16.60;99.90
14411;DHT22;7290;50.854;4.354;2023-08-06T15:31:39;16.30;99.90
14411;DHT22;7290;50.854;4.354;2023-08-06T15:34:06;16.20;99.90
14411;DHT22;7290;50.854;4.354;2023-08-06T15:36:33;16.30;99.90
14411;DHT22;7290;50.854;4.354;2023-08-06T15:39:00;16.50;99.90
14411;DHT22;7290;50.854;4.354;2023-08-06T15:41:26;16.80;99.90